sensor_id;sensor_type;location;lat;lon;timestamp;P1;durP1;ratioP1;P2;durP2;ratioP2
6292;SDS011;3179;54.350;10.102;2023-04-24T00:01:24;2.80;;;2.60;;
6292;SDS011;3179;54.350;10.102;2023-04-24T00:03:51;3.60;;;3.30;;
6292;SDS011;3179;54.350;10.102;2023-04-24T00:06:18;3.43;;;3.13;;
6292;SDS011;3179;54.350;10.102;2023-04-24T00:08:45;6.93;;;3.43;;
6292;SDS011;3179;54.350;10.102;2023-04-24T00:11:13;3.47;;;3.17;;
6292;SDS011;3179;54.350;10.102;2023-04-24T00:13:40;3.83;;;3.40;;
6292;SDS011;3179;54.350;10.102;2023-04-24T00:16:07;5.27;;;4.30;;
6292;SDS011;3179;54.350;10.102;2023-04-24T00:18:33;3.00;;;2.63;;
6292;SDS011;3179;54.350;10.102;2023-04-24T00:21:00;3.47;;;3.17;;
6292;SDS011;3179;54.350;10.102;2023-04-24T00:23:27;3.37;;;3.07;;
6292;SDS011;3179;54.350;10.102;2023-04-24T00:25:54;3.00;;;2.80;;
6292;SDS011;3179;54.350;10.102;2023-04-24T00:28:22;3.90;;;3.50;;
6292;SDS011;3179;54.350;10.102;2023-04-24T00:30:49;3.07;;;2.87;;
6292;SDS011;3179;54.350;10.102;2023-04-24T00:33:16;3.40;;;3.20;;
6292;SDS011;3179;54.350;10.102;2023-04-24T00:35:42;3.03;;;2.83;;
6292;SDS011;3179;54.350;10.102;2023-04-24T00:38:09;3.20;;;2.90;;
6292;SDS011;3179;54.350;10.102;2023-04-24T00:40:36;3.37;;;3.07;;
6292;SDS011;3179;54.350;10.102;2023-04-24T00:43:03;6.83;;;3.20;;
6292;SDS011;3179;54.350;10.102;2023-04-24T00:45:31;4.40;;;3.70;;
6292;SDS011;3179;54.350;10.102;2023-04-24T00:47:58;3.70;;;3.40;;
6292;SDS011;3179;54.350;10.102;2023-04-24T00:50:26;6.10;;;3.50;;
6292;SDS011;3179;54.350;10.102;2023-04-24T00:52:54;3.17;;;2.97;;
6292;SDS011;3179;54.350;10.102;2023-04-24T00:55:21;4.23;;;3.60;;
6292;SDS011;3179;54.350;10.102;2023-04-24T00:57:48;4.30;;;3.90;;
6292;SDS011;3179;54.350;10.102;2023-04-24T01:00:16;4.20;;;3.50;;
6292;SDS011;3179;54.350;10.102;2023-04-24T01:02:44;4.80;;;3.70;;
6292;SDS011;3179;54.350;10.102;2023-04-24T01:05:12;4.53;;;4.13;;
6292;SDS011;3179;54.350;10.102;2023-04-24T01:07:40;4.50;;;4.10;;
6292;SDS011;3179;54.350;10.102;2023-04-24T01:10:10;3.70;;;3.40;;
6292;SDS011;3179;54.350;10.102;2023-04-24T01:12:38;3.60;;;3.27;;
6292;SDS011;3179;54.350;10.102;2023-04-24T01:15:06;3.57;;;3.27;;
6292;SDS011;3179;54.350;10.102;2023-04-24T01:17:33;6.30;;;3.47;;
6292;SDS011;3179;54.350;10.102;2023-04-24T01:20:02;3.30;;;3.00;;
6292;SDS011;3179;54.350;10.102;2023-04-24T01:22:32;3.87;;;3.43;;
6292;SDS011;3179;54.350;10.102;2023-04-24T01:24:59;3.43;;;3.13;;
6292;SDS011;3179;54.350;10.102;2023-04-24T01:27:26;3.83;;;3.53;;
6292;SDS011;3179;54.350;10.102;2023-04-24T01:29:53;3.00;;;2.80;;
6292;SDS011;3179;54.350;10.102;2023-04-24T01:32:20;3.10;;;2.80;;
6292;SDS011;3179;54.350;10.102;2023-04-24T01:34:47;6.53;;;2.70;;
6292;SDS011;3179;54.350;10.102;2023-04-24T01:37:15;3.83;;;3.00;;
6292;SDS011;3179;54.350;10.102;2023-04-24T01:39:43;4.23;;;2.50;;
6292;SDS011;3179;54.350;10.102;2023-04-24T01:42:10;3.00;;;2.70;;
6292;SDS011;3179;54.350;10.102;2023-04-24T01:44:38;3.67;;;2.83;;
6292;SDS011;3179;54.350;10.102;2023-04-24T01:47:04;2.70;;;2.50;;
6292;SDS011;3179;54.350;10.102;2023-04-24T01:49:32;2.73;;;2.53;;
6292;SDS011;3179;54.350;10.102;2023-04-24T01:52:02;3.10;;;2.50;;
6292;SDS011;3179;54.350;10.102;2023-04-24T01:54:28;2.80;;;2.60;;
6292;SDS011;3179;54.350;10.102;2023-04-24T01:56:56;2.77;;;2.57;;
6292;SDS011;3179;54.350;10.102;2023-04-24T01:59:23;3.97;;;2.43;;
6292;SDS011;3179;54.350;10.102;2023-04-24T02:01:52;3.20;;;2.67;;
6292;SDS011;3179;54.350;10.102;2023-04-24T02:04:19;3.00;;;2.70;;
6292;SDS011;3179;54.350;10.102;2023-04-24T02:06:46;3.17;;;2.97;;
6292;SDS011;3179;54.350;10.102;2023-04-24T02:09:13;2.93;;;2.73;;
6292;SDS011;3179;54.350;10.102;2023-04-24T02:11:40;3.07;;;2.80;;
6292;SDS011;3179;54.350;10.102;2023-04-24T02:14:08;2.90;;;2.70;;
6292;SDS011;3179;54.350;10.102;2023-04-24T02:16:35;3.13;;;2.90;;
6292;SDS011;3179;54.350;10.102;2023-04-24T02:19:02;2.83;;;2.63;;
6292;SDS011;3179;54.350;10.102;2023-04-24T02:21:29;2.40;;;2.20;;
6292;SDS011;3179;54.350;10.102;2023-04-24T02:23:56;3.07;;;2.87;;
6292;SDS011;3179;54.350;10.102;2023-04-24T02:26:23;2.80;;;2.60;;
6292;SDS011;3179;54.350;10.102;2023-04-24T02:28:50;4.10;;;2.87;;
6292;SDS011;3179;54.350;10.102;2023-04-24T02:31:18;2.80;;;2.60;;
6292;SDS011;3179;54.350;10.102;2023-04-24T02:33:45;3.00;;;2.80;;
6292;SDS011;3179;54.350;10.102;2023-04-24T02:36:12;4.83;;;3.30;;
6292;SDS011;3179;54.350;10.102;2023-04-24T02:38:39;3.40;;;3.10;;
6292;SDS011;3179;54.350;10.102;2023-04-24T02:41:09;3.73;;;3.43;;
6292;SDS011;3179;54.350;10.102;2023-04-24T02:43:36;3.53;;;3.23;;
6292;SDS011;3179;54.350;10.102;2023-04-24T02:46:02;3.20;;;2.90;;
6292;SDS011;3179;54.350;10.102;2023-04-24T02:48:31;3.97;;;3.43;;
6292;SDS011;3179;54.350;10.102;2023-04-24T02:50:57;4.70;;;3.20;;
6292;SDS011;3179;54.350;10.102;2023-04-24T02:53:24;3.47;;;3.17;;
6292;SDS011;3179;54.350;10.102;2023-04-24T02:55:51;2.80;;;2.60;;
6292;SDS011;3179;54.350;10.102;2023-04-24T02:58:19;3.47;;;3.17;;
6292;SDS011;3179;54.350;10.102;2023-04-24T03:00:46;3.70;;;3.40;;
6292;SDS011;3179;54.350;10.102;2023-04-24T03:03:12;3.63;;;3.30;;
6292;SDS011;3179;54.350;10.102;2023-04-24T03:05:41;3.63;;;3.33;;
6292;SDS011;3179;54.350;10.102;2023-04-24T03:08:08;3.37;;;3.07;;
6292;SDS011;3179;54.350;10.102;2023-04-24T03:10:35;3.30;;;3.00;;
6292;SDS011;3179;54.350;10.102;2023-04-24T03:13:02;4.27;;;3.50;;
6292;SDS011;3179;54.350;10.102;2023-04-24T03:15:28;3.40;;;3.10;;
6292;SDS011;3179;54.350;10.102;2023-04-24T03:17:55;3.27;;;3.07;;
6292;SDS011;3179;54.350;10.102;2023-04-24T03:20:22;3.50;;;3.20;;
6292;SDS011;3179;54.350;10.102;2023-04-24T03:22:50;3.13;;;2.90;;
6292;SDS011;3179;54.350;10.102;2023-04-24T03:25:17;3.10;;;2.90;;
6292;SDS011;3179;54.350;10.102;2023-04-24T03:27:44;3.27;;;3.00;;
6292;SDS011;3179;54.350;10.102;2023-04-24T03:30:11;5.40;;;2.87;;
6292;SDS011;3179;54.350;10.102;2023-04-24T03:32:38;3.30;;;3.00;;
6292;SDS011;3179;54.350;10.102;2023-04-24T03:35:05;3.20;;;3.00;;
6292;SDS011;3179;54.350;10.102;2023-04-24T03:37:33;3.43;;;2.90;;
6292;SDS011;3179;54.350;10.102;2023-04-24T03:40:01;2.90;;;2.70;;
6292;SDS011;3179;54.350;10.102;2023-04-24T03:42:28;3.57;;;3.20;;
6292;SDS011;3179;54.350;10.102;2023-04-24T03:44:55;3.00;;;2.80;;
6292;SDS011;3179;54.350;10.102;2023-04-24T03:47:22;2.97;;;2.67;;
6292;SDS011;3179;54.350;10.102;2023-04-24T03:49:49;3.37;;;3.07;;
6292;SDS011;3179;54.350;10.102;2023-04-24T03:52:16;3.47;;;3.17;;
6292;SDS011;3179;54.350;10.102;2023-04-24T03:54:42;3.30;;;3.10;;
6292;SDS011;3179;54.350;10.102;2023-04-24T03:57:10;2.90;;;2.70;;
6292;SDS011;3179;54.350;10.102;2023-04-24T03:59:37;3.10;;;2.80;;
6292;SDS011;3179;54.350;10.102;2023-04-24T04:02:04;2.93;;;2.70;;
6292;SDS011;3179;54.350;10.102;2023-04-24T04:04:31;2.93;;;2.70;;
6292;SDS011;3179;54.350;10.102;2023-04-24T04:06:57;2.83;;;2.40;;
6292;SDS011;3179;54.350;10.102;2023-04-24T04:09:26;2.20;;;2.00;;
6292;SDS011;3179;54.350;10.102;2023-04-24T04:11:53;3.03;;;2.40;;
6292;SDS011;3179;54.350;10.102;2023-04-24T04:14:21;3.10;;;2.80;;
6292;SDS011;3179;54.350;10.102;2023-04-24T04:16:48;3.73;;;3.40;;
6292;SDS011;3179;54.350;10.102;2023-04-24T04:19:15;3.00;;;2.70;;
6292;SDS011;3179;54.350;10.102;2023-04-24T04:21:41;2.67;;;2.53;;
6292;SDS011;3179;54.350;10.102;2023-04-24T04:24:10;2.80;;;2.60;;
6292;SDS011;3179;54.350;10.102;2023-04-24T04:26:37;2.93;;;2.67;;
6292;SDS011;3179;54.350;10.102;2023-04-24T04:29:05;3.10;;;2.90;;
6292;SDS011;3179;54.350;10.102;2023-04-24T04:31:34;2.80;;;2.60;;
6292;SDS011;3179;54.350;10.102;2023-04-24T04:34:01;4.73;;;2.73;;
6292;SDS011;3179;54.350;10.102;2023-04-24T04:36:28;2.70;;;2.50;;
6292;SDS011;3179;54.350;10.102;2023-04-24T04:38:55;3.20;;;2.80;;
6292;SDS011;3179;54.350;10.102;2023-04-24T04:41:24;2.60;;;2.40;;
6292;SDS011;3179;54.350;10.102;2023-04-24T04:43:51;2.67;;;2.43;;
6292;SDS011;3179;54.350;10.102;2023-04-24T04:46:17;2.60;;;2.40;;
6292;SDS011;3179;54.350;10.102;2023-04-24T04:48:46;2.17;;;2.00;;
6292;SDS011;3179;54.350;10.102;2023-04-24T04:51:12;2.17;;;2.07;;
6292;SDS011;3179;54.350;10.102;2023-04-24T04:53:39;3.23;;;1.83;;
6292;SDS011;3179;54.350;10.102;2023-04-24T04:56:06;1.90;;;1.70;;
6292;SDS011;3179;54.350;10.102;2023-04-24T04:58:33;1.63;;;1.53;;
6292;SDS011;3179;54.350;10.102;2023-04-24T05:00:59;2.00;;;1.80;;
6292;SDS011;3179;54.350;10.102;2023-04-24T05:03:27;1.87;;;1.77;;
6292;SDS011;3179;54.350;10.102;2023-04-24T05:05:55;1.73;;;1.63;;
6292;SDS011;3179;54.350;10.102;2023-04-24T05:08:23;2.20;;;2.00;;
6292;SDS011;3179;54.350;10.102;2023-04-24T05:10:50;1.70;;;1.60;;
6292;SDS011;3179;54.350;10.102;2023-04-24T05:13:17;1.87;;;1.77;;
6292;SDS011;3179;54.350;10.102;2023-04-24T05:15:43;1.73;;;1.63;;
6292;SDS011;3179;54.350;10.102;2023-04-24T05:18:10;1.50;;;1.40;;
6292;SDS011;3179;54.350;10.102;2023-04-24T05:20:37;2.60;;;1.60;;
6292;SDS011;3179;54.350;10.102;2023-04-24T05:23:05;1.50;;;1.40;;
6292;SDS011;3179;54.350;10.102;2023-04-24T05:25:32;1.67;;;1.53;;
6292;SDS011;3179;54.350;10.102;2023-04-24T05:28:00;1.67;;;1.57;;
6292;SDS011;3179;54.350;10.102;2023-04-24T05:30:27;1.53;;;1.43;;
6292;SDS011;3179;54.350;10.102;2023-04-24T05:32:54;3.27;;;1.50;;
6292;SDS011;3179;54.350;10.102;2023-04-24T05:35:20;2.03;;;1.80;;
6292;SDS011;3179;54.350;10.102;2023-04-24T05:37:47;1.73;;;1.50;;
6292;SDS011;3179;54.350;10.102;2023-04-24T05:40:16;1.53;;;1.30;;
6292;SDS011;3179;54.350;10.102;2023-04-24T05:42:43;1.53;;;1.43;;
6292;SDS011;3179;54.350;10.102;2023-04-24T05:45:09;1.90;;;1.80;;
6292;SDS011;3179;54.350;10.102;2023-04-24T05:47:41;1.60;;;1.50;;
6292;SDS011;3179;54.350;10.102;2023-04-24T05:50:08;1.87;;;1.60;;
6292;SDS011;3179;54.350;10.102;2023-04-24T05:52:35;1.70;;;1.60;;
6292;SDS011;3179;54.350;10.102;2023-04-24T05:55:02;1.37;;;1.27;;
6292;SDS011;3179;54.350;10.102;2023-04-24T05:57:31;5.33;;;1.77;;
6292;SDS011;3179;54.350;10.102;2023-04-24T05:59:58;1.87;;;1.77;;
6292;SDS011;3179;54.350;10.102;2023-04-24T06:02:25;1.73;;;1.63;;
6292;SDS011;3179;54.350;10.102;2023-04-24T06:04:52;2.30;;;1.40;;
6292;SDS011;3179;54.350;10.102;2023-04-24T06:07:20;1.53;;;1.43;;
6292;SDS011;3179;54.350;10.102;2023-04-24T06:09:47;1.10;;;1.03;;
6292;SDS011;3179;54.350;10.102;2023-04-24T06:12:13;2.57;;;1.80;;
6292;SDS011;3179;54.350;10.102;2023-04-24T06:14:42;1.53;;;1.43;;
6292;SDS011;3179;54.350;10.102;2023-04-24T06:17:08;1.63;;;1.53;;
6292;SDS011;3179;54.350;10.102;2023-04-24T06:19:35;1.23;;;1.20;;
6292;SDS011;3179;54.350;10.102;2023-04-24T06:22:03;1.50;;;1.40;;
6292;SDS011;3179;54.350;10.102;2023-04-24T06:24:30;1.50;;;1.40;;
6292;SDS011;3179;54.350;10.102;2023-04-24T06:26:57;1.57;;;1.43;;
6292;SDS011;3179;54.350;10.102;2023-04-24T06:29:24;1.67;;;1.53;;
6292;SDS011;3179;54.350;10.102;2023-04-24T06:31:53;1.93;;;1.83;;
6292;SDS011;3179;54.350;10.102;2023-04-24T06:34:19;3.20;;;2.00;;
6292;SDS011;3179;54.350;10.102;2023-04-24T06:36:46;1.93;;;1.83;;
6292;SDS011;3179;54.350;10.102;2023-04-24T06:39:13;1.50;;;1.40;;
6292;SDS011;3179;54.350;10.102;2023-04-24T06:41:40;2.30;;;1.83;;
6292;SDS011;3179;54.350;10.102;2023-04-24T06:44:07;3.30;;;1.90;;
6292;SDS011;3179;54.350;10.102;2023-04-24T06:46:34;4.20;;;1.57;;
6292;SDS011;3179;54.350;10.102;2023-04-24T06:49:02;1.90;;;1.80;;
6292;SDS011;3179;54.350;10.102;2023-04-24T06:51:29;2.20;;;2.00;;
6292;SDS011;3179;54.350;10.102;2023-04-24T06:53:57;1.50;;;1.40;;
6292;SDS011;3179;54.350;10.102;2023-04-24T06:56:25;1.67;;;1.57;;
6292;SDS011;3179;54.350;10.102;2023-04-24T06:58:53;1.63;;;1.50;;
6292;SDS011;3179;54.350;10.102;2023-04-24T07:01:20;1.63;;;1.53;;
6292;SDS011;3179;54.350;10.102;2023-04-24T07:03:47;2.00;;;1.80;;
6292;SDS011;3179;54.350;10.102;2023-04-24T07:06:15;1.80;;;1.70;;
6292;SDS011;3179;54.350;10.102;2023-04-24T07:08:46;1.87;;;1.77;;
6292;SDS011;3179;54.350;10.102;2023-04-24T07:11:13;3.47;;;1.57;;
6292;SDS011;3179;54.350;10.102;2023-04-24T07:13:40;1.73;;;1.63;;
6292;SDS011;3179;54.350;10.102;2023-04-24T07:16:07;1.67;;;1.57;;
6292;SDS011;3179;54.350;10.102;2023-04-24T07:18:34;1.93;;;1.83;;
6292;SDS011;3179;54.350;10.102;2023-04-24T07:21:02;2.53;;;2.33;;
6292;SDS011;3179;54.350;10.102;2023-04-24T07:23:30;1.90;;;1.80;;
6292;SDS011;3179;54.350;10.102;2023-04-24T07:25:57;2.60;;;1.60;;
6292;SDS011;3179;54.350;10.102;2023-04-24T07:28:24;1.70;;;1.60;;
6292;SDS011;3179;54.350;10.102;2023-04-24T07:30:51;1.60;;;1.50;;
6292;SDS011;3179;54.350;10.102;2023-04-24T07:33:19;1.73;;;1.60;;
6292;SDS011;3179;54.350;10.102;2023-04-24T07:35:45;1.73;;;1.63;;
6292;SDS011;3179;54.350;10.102;2023-04-24T07:38:12;1.30;;;1.20;;
6292;SDS011;3179;54.350;10.102;2023-04-24T07:40:40;1.70;;;1.50;;
6292;SDS011;3179;54.350;10.102;2023-04-24T07:43:07;1.90;;;1.80;;
6292;SDS011;3179;54.350;10.102;2023-04-24T07:45:34;1.40;;;1.10;;
6292;SDS011;3179;54.350;10.102;2023-04-24T07:48:02;1.60;;;1.50;;
6292;SDS011;3179;54.350;10.102;2023-04-24T07:50:29;2.07;;;1.63;;
6292;SDS011;3179;54.350;10.102;2023-04-24T07:52:56;1.50;;;1.40;;
6292;SDS011;3179;54.350;10.102;2023-04-24T07:55:23;1.70;;;1.60;;
6292;SDS011;3179;54.350;10.102;2023-04-24T07:57:51;1.73;;;1.63;;
6292;SDS011;3179;54.350;10.102;2023-04-24T08:00:18;2.90;;;2.30;;
6292;SDS011;3179;54.350;10.102;2023-04-24T08:02:45;2.20;;;1.60;;
6292;SDS011;3179;54.350;10.102;2023-04-24T08:05:12;2.10;;;1.90;;
6292;SDS011;3179;54.350;10.102;2023-04-24T08:07:39;1.80;;;1.70;;
6292;SDS011;3179;54.350;10.102;2023-04-24T08:10:07;3.93;;;1.83;;
6292;SDS011;3179;54.350;10.102;2023-04-24T08:12:36;1.93;;;1.80;;
6292;SDS011;3179;54.350;10.102;2023-04-24T08:15:05;1.30;;;1.30;;
6292;SDS011;3179;54.350;10.102;2023-04-24T08:17:33;1.97;;;1.87;;
6292;SDS011;3179;54.350;10.102;2023-04-24T08:20:00;2.50;;;2.30;;
6292;SDS011;3179;54.350;10.102;2023-04-24T08:22:28;3.70;;;2.00;;
6292;SDS011;3179;54.350;10.102;2023-04-24T08:24:55;1.40;;;1.33;;
6292;SDS011;3179;54.350;10.102;2023-04-24T08:27:22;1.83;;;1.73;;
6292;SDS011;3179;54.350;10.102;2023-04-24T08:29:49;1.87;;;1.77;;
6292;SDS011;3179;54.350;10.102;2023-04-24T08:32:17;2.27;;;2.00;;
6292;SDS011;3179;54.350;10.102;2023-04-24T08:34:44;1.70;;;1.47;;
6292;SDS011;3179;54.350;10.102;2023-04-24T08:37:11;1.83;;;1.60;;
6292;SDS011;3179;54.350;10.102;2023-04-24T08:39:38;2.07;;;1.90;;
6292;SDS011;3179;54.350;10.102;2023-04-24T08:42:05;1.97;;;1.87;;
6292;SDS011;3179;54.350;10.102;2023-04-24T08:44:33;4.13;;;2.10;;
6292;SDS011;3179;54.350;10.102;2023-04-24T08:47:00;1.87;;;1.70;;
6292;SDS011;3179;54.350;10.102;2023-04-24T08:49:29;2.17;;;1.97;;
6292;SDS011;3179;54.350;10.102;2023-04-24T08:51:57;2.13;;;1.93;;
6292;SDS011;3179;54.350;10.102;2023-04-24T08:54:25;2.23;;;2.13;;
6292;SDS011;3179;54.350;10.102;2023-04-24T08:56:53;2.80;;;2.60;;
6292;SDS011;3179;54.350;10.102;2023-04-24T08:59:26;2.23;;;2.13;;
6292;SDS011;3179;54.350;10.102;2023-04-24T09:01:53;2.93;;;2.37;;
6292;SDS011;3179;54.350;10.102;2023-04-24T09:04:21;3.00;;;2.30;;
6292;SDS011;3179;54.350;10.102;2023-04-24T09:06:51;2.47;;;2.20;;
6292;SDS011;3179;54.350;10.102;2023-04-24T09:09:21;2.40;;;2.30;;
6292;SDS011;3179;54.350;10.102;2023-04-24T09:11:49;2.00;;;1.90;;
6292;SDS011;3179;54.350;10.102;2023-04-24T09:14:15;1.70;;;1.60;;
6292;SDS011;3179;54.350;10.102;2023-04-24T09:16:43;2.07;;;1.87;;
6292;SDS011;3179;54.350;10.102;2023-04-24T09:19:10;2.57;;;1.90;;
6292;SDS011;3179;54.350;10.102;2023-04-24T09:21:37;2.07;;;1.97;;
6292;SDS011;3179;54.350;10.102;2023-04-24T09:24:05;2.63;;;2.43;;
6292;SDS011;3179;54.350;10.102;2023-04-24T09:26:34;3.30;;;2.77;;
6292;SDS011;3179;54.350;10.102;2023-04-24T09:29:02;3.20;;;2.50;;
6292;SDS011;3179;54.350;10.102;2023-04-24T09:31:30;4.53;;;2.33;;
6292;SDS011;3179;54.350;10.102;2023-04-24T09:33:57;3.77;;;2.00;;
6292;SDS011;3179;54.350;10.102;2023-04-24T09:36:28;2.20;;;2.10;;
6292;SDS011;3179;54.350;10.102;2023-04-24T09:38:58;3.07;;;2.80;;
6292;SDS011;3179;54.350;10.102;2023-04-24T09:41:26;3.00;;;2.80;;
6292;SDS011;3179;54.350;10.102;2023-04-24T09:43:54;3.37;;;3.07;;
6292;SDS011;3179;54.350;10.102;2023-04-24T09:46:28;2.90;;;2.70;;
6292;SDS011;3179;54.350;10.102;2023-04-24T09:48:56;3.33;;;3.07;;
6292;SDS011;3179;54.350;10.102;2023-04-24T09:51:32;3.53;;;3.10;;
6292;SDS011;3179;54.350;10.102;2023-04-24T09:54:00;3.87;;;3.37;;
6292;SDS011;3179;54.350;10.102;2023-04-24T09:56:29;3.10;;;2.90;;
6292;SDS011;3179;54.350;10.102;2023-04-24T09:59:04;3.33;;;3.13;;
6292;SDS011;3179;54.350;10.102;2023-04-24T10:01:32;4.07;;;2.73;;
6292;SDS011;3179;54.350;10.102;2023-04-24T10:03:59;3.83;;;3.53;;
6292;SDS011;3179;54.350;10.102;2023-04-24T10:06:31;4.30;;;3.20;;
6292;SDS011;3179;54.350;10.102;2023-04-24T10:08:59;3.70;;;3.40;;
6292;SDS011;3179;54.350;10.102;2023-04-24T10:11:26;3.63;;;3.33;;
6292;SDS011;3179;54.350;10.102;2023-04-24T10:13:55;4.00;;;3.60;;
6292;SDS011;3179;54.350;10.102;2023-04-24T10:16:22;3.30;;;3.00;;
6292;SDS011;3179;54.350;10.102;2023-04-24T10:18:52;3.40;;;3.13;;
6292;SDS011;3179;54.350;10.102;2023-04-24T10:21:19;4.37;;;3.83;;
6292;SDS011;3179;54.350;10.102;2023-04-24T10:23:46;3.73;;;3.40;;
6292;SDS011;3179;54.350;10.102;2023-04-24T10:26:15;4.20;;;3.60;;
6292;SDS011;3179;54.350;10.102;2023-04-24T10:28:46;3.97;;;3.23;;
6292;SDS011;3179;54.350;10.102;2023-04-24T10:31:13;6.10;;;3.80;;
6292;SDS011;3179;54.350;10.102;2023-04-24T10:33:41;4.70;;;3.70;;
6292;SDS011;3179;54.350;10.102;2023-04-24T10:36:09;3.30;;;3.10;;
6292;SDS011;3179;54.350;10.102;2023-04-24T10:38:38;3.97;;;3.60;;
6292;SDS011;3179;54.350;10.102;2023-04-24T10:41:07;3.53;;;3.23;;
6292;SDS011;3179;54.350;10.102;2023-04-24T10:43:39;4.73;;;4.33;;
6292;SDS011;3179;54.350;10.102;2023-04-24T10:46:07;4.23;;;3.93;;
6292;SDS011;3179;54.350;10.102;2023-04-24T10:48:35;4.20;;;3.80;;
6292;SDS011;3179;54.350;10.102;2023-04-24T10:51:10;4.77;;;4.37;;
6292;SDS011;3179;54.350;10.102;2023-04-24T10:53:38;4.53;;;4.23;;
6292;SDS011;3179;54.350;10.102;2023-04-24T10:56:06;5.00;;;4.50;;
6292;SDS011;3179;54.350;10.102;2023-04-24T10:58:38;4.10;;;3.80;;
6292;SDS011;3179;54.350;10.102;2023-04-24T11:01:11;3.43;;;3.20;;
6292;SDS011;3179;54.350;10.102;2023-04-24T11:03:50;3.83;;;3.53;;
6292;SDS011;3179;54.350;10.102;2023-04-24T11:06:28;4.13;;;3.80;;
6292;SDS011;3179;54.350;10.102;2023-04-24T11:08:58;3.17;;;2.87;;
6292;SDS011;3179;54.350;10.102;2023-04-24T11:11:29;3.43;;;3.00;;
6292;SDS011;3179;54.350;10.102;2023-04-24T11:14:03;3.40;;;3.10;;
6292;SDS011;3179;54.350;10.102;2023-04-24T11:16:34;3.57;;;3.27;;
6292;SDS011;3179;54.350;10.102;2023-04-24T11:19:17;4.10;;;3.50;;
6292;SDS011;3179;54.350;10.102;2023-04-24T11:21:47;3.67;;;3.37;;
6292;SDS011;3179;54.350;10.102;2023-04-24T11:24:23;4.03;;;3.43;;
6292;SDS011;3179;54.350;10.102;2023-04-24T11:26:58;3.90;;;3.60;;
6292;SDS011;3179;54.350;10.102;2023-04-24T11:29:40;3.83;;;3.53;;
6292;SDS011;3179;54.350;10.102;2023-04-24T11:32:17;4.33;;;3.93;;
6292;SDS011;3179;54.350;10.102;2023-04-24T11:34:46;4.13;;;3.73;;
6292;SDS011;3179;54.350;10.102;2023-04-24T11:37:13;4.43;;;4.03;;
6292;SDS011;3179;54.350;10.102;2023-04-24T11:39:40;6.10;;;4.60;;
6292;SDS011;3179;54.350;10.102;2023-04-24T11:42:07;6.00;;;4.17;;
6292;SDS011;3179;54.350;10.102;2023-04-24T11:44:35;8.03;;;4.10;;
6292;SDS011;3179;54.350;10.102;2023-04-24T11:47:02;4.67;;;4.37;;
6292;SDS011;3179;54.350;10.102;2023-04-24T11:49:30;7.03;;;4.87;;
6292;SDS011;3179;54.350;10.102;2023-04-24T11:51:57;3.70;;;3.40;;
6292;SDS011;3179;54.350;10.102;2023-04-24T11:54:25;5.67;;;4.90;;
6292;SDS011;3179;54.350;10.102;2023-04-24T11:56:52;4.33;;;3.93;;
6292;SDS011;3179;54.350;10.102;2023-04-24T11:59:19;5.40;;;4.90;;
6292;SDS011;3179;54.350;10.102;2023-04-24T12:01:46;5.47;;;4.97;;
6292;SDS011;3179;54.350;10.102;2023-04-24T12:04:15;6.20;;;5.40;;
6292;SDS011;3179;54.350;10.102;2023-04-24T12:09:26;7.50;;;4.77;;
6292;SDS011;3179;54.350;10.102;2023-04-24T12:11:53;8.17;;;5.63;;
6292;SDS011;3179;54.350;10.102;2023-04-24T12:14:21;5.87;;;5.37;;
6292;SDS011;3179;54.350;10.102;2023-04-24T12:16:48;6.37;;;5.67;;
6292;SDS011;3179;54.350;10.102;2023-04-24T12:19:17;5.60;;;5.00;;
6292;SDS011;3179;54.350;10.102;2023-04-24T12:21:58;6.07;;;5.00;;
6292;SDS011;3179;54.350;10.102;2023-04-24T12:24:27;6.23;;;5.70;;
6292;SDS011;3179;54.350;10.102;2023-04-24T12:26:54;6.20;;;5.60;;
6292;SDS011;3179;54.350;10.102;2023-04-24T12:29:21;5.57;;;5.07;;
6292;SDS011;3179;54.350;10.102;2023-04-24T12:31:48;5.40;;;4.90;;
6292;SDS011;3179;54.350;10.102;2023-04-24T12:34:19;8.40;;;5.60;;
6292;SDS011;3179;54.350;10.102;2023-04-24T12:36:46;5.90;;;5.37;;
6292;SDS011;3179;54.350;10.102;2023-04-24T12:39:18;5.63;;;5.00;;
6292;SDS011;3179;54.350;10.102;2023-04-24T12:41:54;6.33;;;5.43;;
6292;SDS011;3179;54.350;10.102;2023-04-24T12:44:28;5.53;;;5.00;;
6292;SDS011;3179;54.350;10.102;2023-04-24T12:46:56;5.57;;;5.07;;
6292;SDS011;3179;54.350;10.102;2023-04-24T12:49:23;9.60;;;6.57;;
6292;SDS011;3179;54.350;10.102;2023-04-24T12:51:49;6.80;;;6.10;;
6292;SDS011;3179;54.350;10.102;2023-04-24T12:54:17;6.33;;;5.73;;
6292;SDS011;3179;54.350;10.102;2023-04-24T12:56:44;6.77;;;6.07;;
6292;SDS011;3179;54.350;10.102;2023-04-24T12:59:11;6.10;;;5.50;;
6292;SDS011;3179;54.350;10.102;2023-04-24T13:01:38;7.40;;;6.40;;
6292;SDS011;3179;54.350;10.102;2023-04-24T13:04:05;6.43;;;5.83;;
6292;SDS011;3179;54.350;10.102;2023-04-24T13:06:32;6.07;;;4.93;;
6292;SDS011;3179;54.350;10.102;2023-04-24T13:08:59;6.17;;;5.57;;
6292;SDS011;3179;54.350;10.102;2023-04-24T13:11:27;8.93;;;5.23;;
6292;SDS011;3179;54.350;10.102;2023-04-24T13:13:54;6.00;;;5.20;;
6292;SDS011;3179;54.350;10.102;2023-04-24T13:16:21;7.87;;;6.27;;
6292;SDS011;3179;54.350;10.102;2023-04-24T13:18:48;6.17;;;5.57;;
6292;SDS011;3179;54.350;10.102;2023-04-24T13:21:15;8.23;;;7.10;;
6292;SDS011;3179;54.350;10.102;2023-04-24T13:23:42;7.97;;;7.17;;
6292;SDS011;3179;54.350;10.102;2023-04-24T13:26:08;11.00;;;7.90;;
6292;SDS011;3179;54.350;10.102;2023-04-24T13:28:36;9.10;;;8.20;;
6292;SDS011;3179;54.350;10.102;2023-04-24T13:31:03;10.80;;;9.40;;
6292;SDS011;3179;54.350;10.102;2023-04-24T13:33:31;8.03;;;7.00;;
6292;SDS011;3179;54.350;10.102;2023-04-24T13:35:58;14.70;;;8.10;;
6292;SDS011;3179;54.350;10.102;2023-04-24T13:38:24;10.57;;;8.90;;
6292;SDS011;3179;54.350;10.102;2023-04-24T13:40:51;9.13;;;7.67;;
6292;SDS011;3179;54.350;10.102;2023-04-24T13:43:18;10.17;;;8.00;;
6292;SDS011;3179;54.350;10.102;2023-04-24T13:45:46;9.90;;;7.07;;
6292;SDS011;3179;54.350;10.102;2023-04-24T13:48:13;7.03;;;6.13;;
6292;SDS011;3179;54.350;10.102;2023-04-24T13:50:40;9.70;;;8.20;;
6292;SDS011;3179;54.350;10.102;2023-04-24T13:53:07;8.13;;;6.90;;
6292;SDS011;3179;54.350;10.102;2023-04-24T13:55:34;7.57;;;6.87;;
6292;SDS011;3179;54.350;10.102;2023-04-24T13:58:01;13.17;;;7.43;;
6292;SDS011;3179;54.350;10.102;2023-04-24T14:00:28;10.63;;;6.93;;
6292;SDS011;3179;54.350;10.102;2023-04-24T14:02:57;11.13;;;7.43;;
6292;SDS011;3179;54.350;10.102;2023-04-24T14:05:24;7.80;;;6.97;;
6292;SDS011;3179;54.350;10.102;2023-04-24T14:07:51;8.50;;;7.60;;
6292;SDS011;3179;54.350;10.102;2023-04-24T14:10:17;7.93;;;7.00;;
6292;SDS011;3179;54.350;10.102;2023-04-24T14:12:44;7.23;;;6.53;;
6292;SDS011;3179;54.350;10.102;2023-04-24T14:15:11;7.37;;;6.60;;
6292;SDS011;3179;54.350;10.102;2023-04-24T14:17:38;7.73;;;7.03;;
6292;SDS011;3179;54.350;10.102;2023-04-24T14:20:07;7.50;;;6.83;;
6292;SDS011;3179;54.350;10.102;2023-04-24T14:22:34;7.70;;;7.00;;
6292;SDS011;3179;54.350;10.102;2023-04-24T14:25:01;7.33;;;6.73;;
6292;SDS011;3179;54.350;10.102;2023-04-24T14:27:28;8.60;;;6.70;;
6292;SDS011;3179;54.350;10.102;2023-04-24T14:29:55;7.43;;;6.40;;
6292;SDS011;3179;54.350;10.102;2023-04-24T14:32:22;8.40;;;7.60;;
6292;SDS011;3179;54.350;10.102;2023-04-24T14:34:48;7.30;;;6.30;;
6292;SDS011;3179;54.350;10.102;2023-04-24T14:37:17;6.67;;;5.80;;
6292;SDS011;3179;54.350;10.102;2023-04-24T14:39:44;5.90;;;5.30;;
6292;SDS011;3179;54.350;10.102;2023-04-24T14:42:11;5.50;;;5.00;;
6292;SDS011;3179;54.350;10.102;2023-04-24T14:44:38;5.80;;;5.13;;
6292;SDS011;3179;54.350;10.102;2023-04-24T14:47:05;6.33;;;5.73;;
6292;SDS011;3179;54.350;10.102;2023-04-24T14:49:32;4.73;;;4.37;;
6292;SDS011;3179;54.350;10.102;2023-04-24T14:51:58;4.80;;;4.40;;
6292;SDS011;3179;54.350;10.102;2023-04-24T14:54:27;4.20;;;3.60;;
6292;SDS011;3179;54.350;10.102;2023-04-24T14:56:54;4.17;;;3.77;;
6292;SDS011;3179;54.350;10.102;2023-04-24T14:59:21;3.40;;;3.10;;
6292;SDS011;3179;54.350;10.102;2023-04-24T15:01:48;3.70;;;3.40;;
6292;SDS011;3179;54.350;10.102;2023-04-24T15:04:16;3.20;;;3.00;;
6292;SDS011;3179;54.350;10.102;2023-04-24T15:06:43;4.30;;;4.00;;